Time;durP1;ratioP1;P1;durP2;ratioP2;P2;SDS_P1;SDS_P2;PMS_P1;PMS_P2;Temp;Humidity;BMP_temperature;BMP_pressure;BME280_temperature;BME280_humidity;BME280_pressure;Samples;Min_cycle;Max_cycle;Signal;HPM_P1;HPM_P2
2022/12/23 00:00:36;;;;;;;13.97;10.83;;;;;;;-145.23;100.00;58621.06;5006265;28;20237;-55
2022/12/23 00:03:03;;;;;;;16.03;11.77;;;;;;;-145.23;100.00;58621.06;5012621;28;20241;-53
2022/12/23 00:05:30;;;;;;;17.20;11.43;;;;;;;-145.23;100.00;58621.06;5007205;28;20237;-54
2022/12/23 00:07:58;;;;;;;18.20;11.53;;;;;;;-145.23;100.00;58621.06;5005573;28;20292;-53
2022/12/23 00:10:24;;;;;;;17.33;11.73;;;;;;;-145.23;100.00;58621.06;5007372;28;20631;-54
2022/12/23 00:15:35;;;;;;;16.33;12.33;;;;;;;-145.23;100.00;58621.06;5013053;28;20315;-55
2022/12/23 00:18:02;;;;;;;15.40;10.47;;;;;;;-145.23;100.00;58621.06;5008165;28;20293;-55
2022/12/23 00:20:28;;;;;;;15.50;11.93;;;;;;;-145.23;100.00;58621.06;5012770;28;20293;-53
2022/12/23 00:23:07;;;;;;;17.63;11.77;;;;;;;-145.23;100.00;58621.06;5012010;28;21023;-54
2022/12/23 00:25:43;;;;;;;19.73;11.93;;;;;;;-145.23;100.00;58621.06;5010556;28;20646;-56
2022/12/23 00:28:11;;;;;;;15.60;11.10;;;;;;;-145.23;100.00;58621.06;4997134;28;20243;-55
2022/12/23 00:30:38;;;;;;;14.17;10.33;;;;;;;-145.23;100.00;58621.06;5011266;28;20240;-53
2022/12/23 00:33:05;;;;;;;13.33;10.83;;;;;;;-145.23;100.00;58621.06;5004597;28;20268;-54
2022/12/23 00:35:32;;;;;;;12.83;10.63;;;;;;;-145.23;100.00;58621.06;5000304;28;20233;-53
2022/12/23 00:37:58;;;;;;;16.77;10.50;;;;;;;-145.23;100.00;58621.06;5002462;28;20270;-54
2022/12/23 00:43:10;;;;;;;12.50;9.63;;;;;;;-145.23;100.00;58621.06;5012486;28;20240;-53
2022/12/23 00:45:37;;;;;;;13.93;10.00;;;;;;;-145.23;100.00;58621.06;5003487;28;20233;-55
2022/12/23 00:50:47;;;;;;;16.00;10.23;;;;;;;-145.23;100.00;58621.06;5006107;28;20232;-55
2022/12/23 00:53:14;;;;;;;15.50;10.20;;;;;;;-145.23;100.00;58621.06;5005178;28;20232;-54
2022/12/23 00:55:40;;;;;;;11.00;8.97;;;;;;;-145.23;100.00;58621.06;5005501;28;20237;-55
2022/12/23 00:58:07;;;;;;;15.60;10.03;;;;;;;-145.23;100.00;58621.06;5003816;28;20236;-54
2022/12/23 01:06:03;;;;;;;15.17;10.50;;;;;;;-145.23;100.00;58621.06;5010717;28;20263;-54
2022/12/23 01:08:30;;;;;;;11.60;8.57;;;;;;;-145.23;100.00;58621.06;5008777;28;20247;-54
2022/12/23 01:10:56;;;;;;;8.57;7.67;;;;;;;-145.23;100.00;58621.06;4998124;28;20321;-54
2022/12/23 01:13:23;;;;;;;10.40;8.67;;;;;;;-145.23;100.00;58621.06;5009797;28;20237;-53
2022/12/23 01:15:51;;;;;;;13.67;10.07;;;;;;;-145.23;100.00;58621.06;5005779;28;20755;-53
2022/12/23 01:18:17;;;;;;;15.90;10.73;;;;;;;-145.23;100.00;58621.06;5009046;28;20236;-55
2022/12/23 01:20:44;;;;;;;12.33;10.53;;;;;;;-145.23;100.00;58621.06;5007014;28;20232;-53
2022/12/23 01:23:10;;;;;;;12.77;10.00;;;;;;;-145.23;100.00;58621.06;5009617;28;20243;-54
2022/12/23 01:25:37;;;;;;;13.97;10.00;;;;;;;-145.23;100.00;58621.06;5009080;28;20237;-55
2022/12/23 01:28:04;;;;;;;12.43;9.53;;;;;;;-145.23;100.00;58621.06;4999479;28;20230;-54
2022/12/23 01:30:30;;;;;;;14.93;10.13;;;;;;;-145.23;100.00;58621.06;5007371;28;20250;-54
2022/12/23 01:32:58;;;;;;;13.37;10.23;;;;;;;-145.23;100.00;58621.06;5012585;28;20702;-54
2022/12/23 01:35:25;;;;;;;19.17;11.60;;;;;;;-145.23;100.00;58621.06;5008644;28;20252;-54
2022/12/23 01:37:51;;;;;;;16.50;10.47;;;;;;;-145.23;100.00;58621.06;4999798;28;20240;-53
2022/12/23 01:40:18;;;;;;;15.40;11.57;;;;;;;-145.23;100.00;58621.06;5009036;28;20475;-54
2022/12/23 01:42:44;;;;;;;15.40;10.50;;;;;;;-145.23;100.00;58621.06;5007016;28;20240;-53
2022/12/23 01:45:16;;;;;;;12.53;9.77;;;;;;;-145.23;100.00;58621.06;5007417;28;20241;-54
2022/12/23 01:47:47;;;;;;;12.97;9.70;;;;;;;-145.23;100.00;58621.06;5006335;28;20225;-54
2022/12/23 01:50:17;;;;;;;13.73;10.13;;;;;;;-145.23;100.00;58621.06;5008809;28;20618;-54
2022/12/23 01:52:46;;;;;;;16.63;11.53;;;;;;;-145.23;100.00;58621.06;5007029;28;20328;-53
2022/12/23 01:55:14;;;;;;;13.00;9.80;;;;;;;-145.23;100.00;58621.06;5009803;28;20224;-54
2022/12/23 01:57:42;;;;;;;19.63;11.87;;;;;;;-145.23;100.00;58621.06;5009979;28;20263;-53
2022/12/23 02:05:39;;;;;;;14.80;10.43;;;;;;;-145.23;100.00;58621.06;5005449;28;20240;-54
2022/12/23 02:11:14;;;;;;;13.73;10.40;;;;;;;-145.23;100.00;58621.06;5008288;28;20236;-55
2022/12/23 02:16:15;;;;;;;15.43;11.13;;;;;;;-145.23;100.00;58621.06;5006928;28;20249;-54
2022/12/23 02:16:33;;;;;;;18.10;12.17;;;;;;;-145.23;100.00;58621.06;5012425;28;20323;-55
2022/12/23 02:19:10;;;;;;;14.93;10.57;;;;;;;-145.23;100.00;58621.06;5015723;28;20312;-54
2022/12/23 02:22:02;;;;;;;18.13;13.03;;;;;;;-145.23;100.00;58621.06;5024056;28;20220;-54
2022/12/23 02:24:57;;;;;;;14.77;11.13;;;;;;;-145.23;100.00;58621.06;5029574;28;20217;-55
2022/12/23 02:27:28;;;;;;;18.03;12.97;;;;;;;-145.23;100.00;58621.06;5002633;28;20229;-54
2022/12/23 02:30:27;;;;;;;17.10;11.43;;;;;;;-145.23;100.00;58621.06;5021828;28;20729;-53
2022/12/23 02:33:05;;;;;;;16.67;10.87;;;;;;;-145.23;100.00;58621.06;5026041;28;20242;-54
2022/12/23 02:35:36;;;;;;;15.93;12.00;;;;;;;-145.23;100.00;58621.06;5007793;28;20317;-56
2022/12/23 02:38:09;;;;;;;17.23;12.17;;;;;;;-145.23;100.00;58621.06;5006774;28;20320;-55
2022/12/23 02:40:42;;;;;;;21.47;12.33;;;;;;;-145.23;100.00;58621.06;5007583;28;20780;-54
2022/12/23 02:43:13;;;;;;;16.53;12.53;;;;;;;-145.23;100.00;58621.06;5000800;28;20778;-54
2022/12/23 02:45:43;;;;;;;16.10;11.97;;;;;;;-145.23;100.00;58621.06;5010271;28;20730;-54
2022/12/23 02:48:12;;;;;;;18.83;12.90;;;;;;;-145.23;100.00;58621.06;5020129;28;20776;-55
2022/12/23 02:50:41;;;;;;;16.97;12.07;;;;;;;-145.23;100.00;58621.06;5025980;28;20232;-54
2022/12/23 02:53:11;;;;;;;18.00;12.67;;;;;;;-145.23;100.00;58621.06;5026866;28;20260;-53
2022/12/23 02:55:40;;;;;;;16.80;12.40;;;;;;;-145.23;100.00;58621.06;5025274;28;20240;-54
2022/12/23 02:58:10;;;;;;;18.80;13.03;;;;;;;-145.23;100.00;58621.06;5023249;28;20327;-55
2022/12/23 03:00:38;;;;;;;18.23;12.13;;;;;;;-145.23;100.00;58621.06;5025669;28;21137;-54
2022/12/23 03:03:05;;;;;;;21.50;13.47;;;;;;;-145.23;100.00;58621.06;5026673;28;20268;-54
2022/12/23 03:05:36;;;;;;;17.07;12.17;;;;;;;-145.23;100.00;58621.06;5026577;28;20228;-53
2022/12/23 03:08:06;;;;;;;18.07;12.33;;;;;;;-145.23;100.00;58621.06;5022457;28;20259;-55
2022/12/23 03:10:42;;;;;;;15.77;11.17;;;;;;;-145.23;100.00;58621.06;5027463;28;20232;-55
2022/12/23 03:13:18;;;;;;;16.20;12.10;;;;;;;-145.23;100.00;58621.06;5031434;28;20238;-54
2022/12/23 03:15:47;;;;;;;18.63;12.77;;;;;;;-145.23;100.00;58621.06;5027329;28;20252;-55
2022/12/23 03:18:21;;;;;;;19.57;12.90;;;;;;;-145.23;100.00;58621.06;5030544;28;20243;-54
2022/12/23 03:20:54;;;;;;;18.27;12.70;;;;;;;-145.23;100.00;58621.06;5022739;28;20240;-56
2022/12/23 03:23:24;;;;;;;18.03;13.67;;;;;;;-145.23;100.00;58621.06;5033050;28;20239;-54
2022/12/23 03:25:58;;;;;;;18.63;12.63;;;;;;;-145.23;100.00;58621.06;5028402;28;20612;-55
2022/12/23 03:28:29;;;;;;;18.73;12.03;;;;;;;-145.23;100.00;58621.06;5030904;28;20330;-54
2022/12/23 03:30:57;;;;;;;21.63;14.60;;;;;;;-145.23;100.00;58621.06;5025655;28;20603;-55
2022/12/23 03:33:26;;;;;;;17.07;13.30;;;;;;;-145.23;100.00;58621.06;5022964;28;20236;-54
2022/12/23 03:35:58;;;;;;;16.93;11.80;;;;;;;-145.23;100.00;58621.06;5027570;28;20231;-54
2022/12/23 03:38:26;;;;;;;17.90;12.77;;;;;;;-145.23;100.00;58621.06;5022594;28;20311;-56
2022/12/23 03:40:54;;;;;;;17.30;12.03;;;;;;;-145.23;100.00;58621.06;5027477;28;20243;-56
2022/12/23 03:43:24;;;;;;;17.23;11.47;;;;;;;-145.23;100.00;58621.06;5025431;28;20238;-55
2022/12/23 03:45:54;;;;;;;16.93;12.47;;;;;;;-145.23;100.00;58621.06;5031041;28;20315;-55
2022/12/23 03:48:23;;;;;;;14.33;10.97;;;;;;;-145.23;100.00;58621.06;5027372;28;20239;-56
2022/12/23 03:50:55;;;;;;;14.87;11.03;;;;;;;-145.23;100.00;58621.06;5029104;28;20308;-54
2022/12/23 03:53:25;;;;;;;15.40;12.00;;;;;;;-145.23;100.00;58621.06;5015102;28;20241;-54
2022/12/23 03:55:55;;;;;;;17.23;12.00;;;;;;;-145.23;100.00;58621.06;5011239;28;22516;-54
2022/12/23 03:58:29;;;;;;;16.47;13.27;;;;;;;-145.23;100.00;58621.06;5028159;28;20244;-54
2022/12/23 04:00:59;;;;;;;18.67;12.93;;;;;;;-145.23;100.00;58621.06;5014232;28;20229;-55
2022/12/23 04:03:31;;;;;;;16.60;11.80;;;;;;;-145.23;100.00;58621.06;5003214;28;20237;-54
2022/12/23 04:06:00;;;;;;;16.70;12.30;;;;;;;-145.23;100.00;58621.06;5007650;28;20339;-55
2022/12/23 04:08:30;;;;;;;16.00;12.00;;;;;;;-145.23;100.00;58621.06;5006518;28;20243;-54
2022/12/23 04:10:57;;;;;;;21.00;14.70;;;;;;;-145.23;100.00;58621.06;5004901;28;20300;-55
2022/12/23 04:13:23;;;;;;;17.80;12.30;;;;;;;-145.23;100.00;58621.06;5010031;28;20248;-59
2022/12/23 04:15:50;;;;;;;16.40;11.90;;;;;;;-145.23;100.00;58621.06;5005532;28;20233;-54
2022/12/23 04:18:17;;;;;;;16.13;12.80;;;;;;;-145.23;100.00;58621.06;5008865;28;20316;-55
2022/12/23 04:20:43;;;;;;;16.80;12.93;;;;;;;-145.23;100.00;58621.06;5013544;28;20237;-55
2022/12/23 04:23:11;;;;;;;15.93;11.77;;;;;;;-145.23;100.00;58621.06;5005377;28;20646;-53
2022/12/23 04:25:38;;;;;;;15.40;11.60;;;;;;;-145.23;100.00;58621.06;5012107;28;20229;-55
2022/12/23 04:28:05;;;;;;;18.50;12.03;;;;;;;-145.23;100.00;58621.06;5011047;28;20565;-58
2022/12/23 04:30:31;;;;;;;17.93;12.83;;;;;;;-145.23;100.00;58621.06;5009978;28;20240;-55
2022/12/23 04:32:58;;;;;;;21.60;13.83;;;;;;;-145.23;100.00;58621.06;5025715;28;20247;-55
2022/12/23 04:35:24;;;;;;;21.83;15.53;;;;;;;-145.23;100.00;58621.06;5011265;28;20237;-55
2022/12/23 04:37:51;;;;;;;19.93;14.43;;;;;;;-145.23;100.00;58621.06;5014386;28;20251;-56
2022/12/23 04:40:19;;;;;;;22.23;17.83;;;;;;;-145.23;100.00;58621.06;5006481;28;20239;-53
2022/12/23 04:42:45;;;;;;;25.10;18.37;;;;;;;-145.23;100.00;58621.06;5003509;28;20244;-54
2022/12/23 04:45:12;;;;;;;23.40;18.33;;;;;;;-145.23;100.00;58621.06;5000520;28;20921;-54
2022/12/23 04:47:39;;;;;;;24.23;17.63;;;;;;;-145.23;100.00;58621.06;5004224;28;20742;-55
2022/12/23 04:50:07;;;;;;;23.97;18.30;;;;;;;-145.23;100.00;58621.06;5003316;28;20291;-54
2022/12/23 04:52:34;;;;;;;26.33;18.77;;;;;;;-145.23;100.00;58621.06;5008190;28;20241;-54
2022/12/23 04:55:00;;;;;;;27.57;19.87;;;;;;;-145.23;100.00;58621.06;5016782;28;20263;-54
2022/12/23 04:57:28;;;;;;;23.53;18.40;;;;;;;-145.23;100.00;58621.06;5012349;28;20251;-55
2022/12/23 04:59:55;;;;;;;24.73;17.27;;;;;;;-145.23;100.00;58621.06;5004147;28;20233;-55
2022/12/23 05:02:21;;;;;;;25.53;16.73;;;;;;;-145.23;100.00;58621.06;5008446;28;20738;-56
2022/12/23 05:04:48;;;;;;;27.27;17.43;;;;;;;-145.23;100.00;58621.06;5007244;28;20360;-54
2022/12/23 05:07:14;;;;;;;19.43;15.00;;;;;;;-145.23;100.00;58621.06;5009225;28;20620;-56
2022/12/23 05:09:41;;;;;;;22.57;14.80;;;;;;;-145.23;100.00;58621.06;4996203;28;20250;-54
2022/12/23 05:12:07;;;;;;;19.70;14.97;;;;;;;-145.23;100.00;58621.06;4996947;28;20232;-54
2022/12/23 05:14:35;;;;;;;20.13;15.03;;;;;;;-145.23;100.00;58621.06;5004747;28;20232;-58
2022/12/23 05:17:02;;;;;;;19.27;13.70;;;;;;;-145.23;100.00;58621.06;5001697;28;20241;-55
2022/12/23 05:19:28;;;;;;;22.80;14.50;;;;;;;-145.23;100.00;58621.06;5001683;28;20711;-54
2022/12/23 05:21:55;;;;;;;21.57;15.07;;;;;;;-145.23;100.00;58621.06;5001560;28;20606;-55
2022/12/23 05:24:21;;;;;;;21.70;14.50;;;;;;;-145.23;100.00;58621.06;5003418;28;20229;-55
2022/12/23 05:26:48;;;;;;;18.93;14.10;;;;;;;-145.23;100.00;58621.06;5002990;28;20243;-55
2022/12/23 05:29:15;;;;;;;21.83;16.30;;;;;;;-145.23;100.00;58621.06;5005083;28;20241;-56
2022/12/23 05:31:43;;;;;;;18.73;14.53;;;;;;;-145.23;100.00;58621.06;5003761;28;20606;-56
2022/12/23 05:34:09;;;;;;;16.50;13.33;;;;;;;-145.23;100.00;58621.06;5004228;28;20252;-54
2022/12/23 05:36:36;;;;;;;19.83;14.00;;;;;;;-145.23;100.00;58621.06;5007746;28;20243;-55
2022/12/23 05:39:03;;;;;;;15.13;12.00;;;;;;;-145.23;100.00;58621.06;5004444;28;20243;-55
2022/12/23 05:41:29;;;;;;;15.97;11.83;;;;;;;-145.23;100.00;58621.06;5005847;28;20308;-56
2022/12/23 05:43:56;;;;;;;18.10;12.17;;;;;;;-145.23;100.00;58621.06;5003905;28;20233;-55
2022/12/23 05:46:23;;;;;;;18.73;12.80;;;;;;;-145.23;100.00;58621.06;5002262;28;20229;-54
2022/12/23 05:48:50;;;;;;;15.17;11.87;;;;;;;-145.23;100.00;58621.06;5003790;28;20243;-55
2022/12/23 05:51:17;;;;;;;15.83;12.17;;;;;;;-145.23;100.00;58621.06;4999501;28;20260;-55
2022/12/23 05:53:44;;;;;;;18.87;13.27;;;;;;;-145.23;100.00;58621.06;5005088;28;20255;-54
2022/12/23 05:56:10;;;;;;;15.40;12.67;;;;;;;-145.23;100.00;58621.06;5005145;28;20237;-55
2022/12/23 05:58:37;;;;;;;14.97;11.83;;;;;;;-145.23;100.00;58621.06;5006595;28;20245;-55
2022/12/23 06:01:04;;;;;;;14.17;11.00;;;;;;;-145.23;100.00;58621.06;5011824;28;20235;-54
2022/12/23 06:03:31;;;;;;;11.93;9.97;;;;;;;-145.23;100.00;58621.06;5015244;28;20358;-54
2022/12/23 06:05:59;;;;;;;15.73;10.87;;;;;;;-145.23;100.00;58621.06;5015448;28;20228;-54
2022/12/23 06:08:25;;;;;;;13.47;10.37;;;;;;;-145.23;100.00;58621.06;5011616;28;20316;-55
2022/12/23 06:10:52;;;;;;;14.47;12.20;;;;;;;-145.23;100.00;58621.06;5008899;28;20248;-54
2022/12/23 06:13:19;;;;;;;18.37;11.97;;;;;;;-145.23;100.00;58621.06;5007132;28;20239;-54
2022/12/23 06:15:46;;;;;;;15.87;11.63;;;;;;;-145.23;100.00;58621.06;5006641;28;20236;-62
2022/12/23 06:18:13;;;;;;;20.20;13.00;;;;;;;-145.23;100.00;58621.06;5006180;28;20243;-55
2022/12/23 06:20:39;;;;;;;17.83;12.50;;;;;;;-145.23;100.00;58621.06;5004028;28;20235;-54
2022/12/23 06:23:07;;;;;;;17.37;12.43;;;;;;;-145.23;100.00;58621.06;5013419;28;20233;-55
2022/12/23 06:25:34;;;;;;;16.57;11.83;;;;;;;-145.23;100.00;58621.06;5012240;28;20240;-56
2022/12/23 06:28:00;;;;;;;15.03;10.97;;;;;;;-145.23;100.00;58621.06;5011505;28;20271;-55
2022/12/23 06:30:27;;;;;;;15.40;12.27;;;;;;;-145.23;100.00;58621.06;5007489;28;20229;-55
2022/12/23 06:32:54;;;;;;;16.30;11.53;;;;;;;-145.23;100.00;58621.06;5007309;28;20257;-55
2022/12/23 06:35:20;;;;;;;16.43;13.03;;;;;;;-145.23;100.00;58621.06;5006243;28;20609;-55
2022/12/23 06:37:47;;;;;;;17.53;12.53;;;;;;;-145.23;100.00;58621.06;5004902;28;20240;-55
2022/12/23 06:40:15;;;;;;;22.03;13.13;;;;;;;-145.23;100.00;58621.06;5011537;28;20243;-53
2022/12/23 06:42:41;;;;;;;17.47;12.17;;;;;;;-145.23;100.00;58621.06;5006717;28;20248;-55
2022/12/23 06:45:09;;;;;;;15.10;11.33;;;;;;;-145.23;100.00;58621.06;5005931;28;20229;-56
2022/12/23 06:47:36;;;;;;;16.33;12.27;;;;;;;-145.23;100.00;58621.06;5005317;28;20233;-55
2022/12/23 06:50:02;;;;;;;16.83;11.63;;;;;;;-145.23;100.00;58621.06;5007636;28;20236;-55
2022/12/23 06:52:29;;;;;;;17.37;11.83;;;;;;;-145.23;100.00;58621.06;5013087;28;20239;-55
2022/12/23 06:54:55;;;;;;;15.80;11.53;;;;;;;-145.23;100.00;58621.06;5010611;28;20233;-55
2022/12/23 06:57:23;;;;;;;16.70;11.73;;;;;;;-145.23;100.00;58621.06;5004841;28;20233;-54
2022/12/23 06:59:50;;;;;;;19.37;11.53;;;;;;;-145.23;100.00;58621.06;5014252;28;20229;-55
2022/12/23 07:02:16;;;;;;;16.27;11.57;;;;;;;-145.23;100.00;58621.06;5017534;28;20235;-55
2022/12/23 07:04:43;;;;;;;17.40;11.70;;;;;;;-145.23;100.00;58621.06;5016793;28;20239;-54
2022/12/23 07:07:09;;;;;;;18.67;12.17;;;;;;;-145.23;100.00;58621.06;4998429;28;20225;-55
2022/12/23 07:09:36;;;;;;;17.80;10.97;;;;;;;-145.23;100.00;58621.06;5007008;28;20233;-55
2022/12/23 07:12:03;;;;;;;16.13;11.07;;;;;;;-145.23;100.00;58621.06;5005910;28;20312;-55
2022/12/23 07:14:31;;;;;;;14.43;10.03;;;;;;;-145.23;100.00;58621.06;5004179;28;20236;-55
2022/12/23 07:16:57;;;;;;;17.03;11.87;;;;;;;-145.23;100.00;58621.06;5002843;28;20316;-56
2022/12/23 07:19:24;;;;;;;18.67;12.33;;;;;;;-145.23;100.00;58621.06;5006386;28;20232;-56
2022/12/23 07:21:50;;;;;;;20.13;11.33;;;;;;;-145.23;100.00;58621.06;5005533;28;20252;-56
2022/12/23 07:24:17;;;;;;;18.97;12.17;;;;;;;-145.23;100.00;58621.06;5007037;28;20234;-56
2022/12/23 07:26:44;;;;;;;16.50;12.07;;;;;;;-145.23;100.00;58621.06;4997909;28;20321;-54
2022/12/23 07:29:10;;;;;;;15.63;11.13;;;;;;;-145.23;100.00;58621.06;5005945;28;20667;-54
2022/12/23 07:31:38;;;;;;;16.17;11.20;;;;;;;-145.23;100.00;58621.06;5006727;28;20247;-55
2022/12/23 07:34:05;;;;;;;16.07;11.47;;;;;;;-145.23;100.00;58621.06;5001925;28;20248;-56
2022/12/23 07:36:31;;;;;;;16.30;11.13;;;;;;;-145.23;100.00;58621.06;5003569;28;20320;-56
2022/12/23 07:38:58;;;;;;;16.20;10.73;;;;;;;-145.23;100.00;58621.06;4997251;28;20458;-55
2022/12/23 07:41:24;;;;;;;15.67;9.33;;;;;;;-145.23;100.00;58621.06;5007172;28;22767;-54
2022/12/23 07:43:51;;;;;;;16.80;10.77;;;;;;;-145.23;100.00;58621.06;5006294;28;20243;-56
2022/12/23 07:46:17;;;;;;;16.60;11.00;;;;;;;-145.23;100.00;58621.06;5001272;28;20239;-54
2022/12/23 07:48:45;;;;;;;20.03;11.20;;;;;;;-145.23;100.00;58621.06;5005041;28;20240;-55
2022/12/23 07:51:12;;;;;;;16.23;9.83;;;;;;;-145.23;100.00;58621.06;5004731;28;20670;-54
2022/12/23 07:53:38;;;;;;;15.40;10.60;;;;;;;-145.23;100.00;58621.06;5005047;28;20263;-55
2022/12/23 07:56:06;;;;;;;18.37;11.00;;;;;;;-145.23;100.00;58621.06;5021938;28;20323;-54
2022/12/23 07:58:32;;;;;;;18.40;11.17;;;;;;;-145.23;100.00;58621.06;5025352;28;20247;-54
2022/12/23 08:01:01;;;;;;;15.53;9.83;;;;;;;-145.23;100.00;58621.06;5030036;28;20233;-55
2022/12/23 08:03:27;;;;;;;20.33;11.83;;;;;;;-145.23;100.00;58621.06;5024854;28;20599;-55
2022/12/23 08:06:01;;;;;;;17.10;10.77;;;;;;;-145.23;100.00;58621.06;5021931;28;20232;-54
2022/12/23 08:08:27;;;;;;;18.60;11.67;;;;;;;-145.23;100.00;58621.06;5001188;28;20233;-56
2022/12/23 08:10:57;;;;;;;21.10;11.07;;;;;;;-145.23;100.00;58621.06;5001342;28;20239;-55
2022/12/23 08:13:24;;;;;;;16.83;9.83;;;;;;;-145.23;100.00;58621.06;5001661;28;20704;-54
2022/12/23 08:15:54;;;;;;;17.07;10.07;;;;;;;-145.23;100.00;58621.06;5017593;28;20702;-55
2022/12/23 08:18:21;;;;;;;20.83;11.40;;;;;;;-145.23;100.00;58621.06;5020867;28;20229;-55
2022/12/23 08:20:53;;;;;;;24.43;12.83;;;;;;;-145.23;100.00;58621.06;5021446;28;20239;-55
2022/12/23 08:23:21;;;;;;;19.90;11.20;;;;;;;-145.23;100.00;58621.06;5016336;28;20235;-55
2022/12/23 08:25:48;;;;;;;19.27;11.77;;;;;;;-145.23;100.00;58621.06;5019295;28;20624;-54
2022/12/23 08:28:15;;;;;;;20.90;12.17;;;;;;;-145.23;100.00;58621.06;5003440;28;20328;-55
2022/12/23 08:30:41;;;;;;;21.27;11.70;;;;;;;-145.23;100.00;58621.06;5004169;28;20237;-54
2022/12/23 08:33:08;;;;;;;23.63;11.67;;;;;;;-145.23;100.00;58621.06;5005159;28;20241;-54
2022/12/23 08:35:34;;;;;;;19.30;10.83;;;;;;;-145.23;100.00;58621.06;5005671;28;20315;-53
2022/12/23 08:38:01;;;;;;;19.70;11.27;;;;;;;-145.23;100.00;58621.06;5023336;28;20243;-54
2022/12/23 08:40:29;;;;;;;23.13;11.47;;;;;;;-145.23;100.00;58621.06;5025183;28;20237;-56
2022/12/23 08:42:55;;;;;;;24.53;11.87;;;;;;;-145.23;100.00;58621.06;5025673;28;20236;-55
2022/12/23 08:45:22;;;;;;;16.40;10.83;;;;;;;-145.23;100.00;58621.06;5019037;28;20243;-55
2022/12/23 08:47:48;;;;;;;16.53;10.13;;;;;;;-145.23;100.00;58621.06;5022984;28;20759;-54
2022/12/23 08:50:15;;;;;;;18.40;11.13;;;;;;;-145.23;100.00;58621.06;5022706;28;20232;-54
2022/12/23 08:52:42;;;;;;;25.57;12.07;;;;;;;-145.23;100.00;58621.06;5023950;28;20266;-54
2022/12/23 08:55:09;;;;;;;20.30;11.50;;;;;;;-145.23;100.00;58621.06;5022532;28;20608;-54
2022/12/23 08:57:37;;;;;;;19.57;10.77;;;;;;;-145.23;100.00;58621.06;5017845;28;20228;-54
2022/12/23 09:00:04;;;;;;;17.77;9.67;;;;;;;-145.23;100.00;58621.06;5003251;28;20229;-55
2022/12/23 09:02:31;;;;;;;15.50;9.90;;;;;;;-145.23;100.00;58621.06;5002734;28;20261;-57
2022/12/23 09:04:57;;;;;;;20.00;10.37;;;;;;;-145.23;100.00;58621.06;5006481;28;20243;-55
2022/12/23 09:07:24;;;;;;;20.80;10.50;;;;;;;-145.23;100.00;58621.06;5004145;28;20232;-54
2022/12/23 09:09:50;;;;;;;18.67;11.30;;;;;;;-145.23;100.00;58621.06;5005507;28;20239;-54
2022/12/23 09:12:17;;;;;;;21.73;12.03;;;;;;;-145.23;100.00;58621.06;5003088;28;20238;-55
2022/12/23 09:14:46;;;;;;;23.73;13.10;;;;;;;-145.23;100.00;58621.06;5003528;28;20229;-56
2022/12/23 09:17:13;;;;;;;26.97;13.93;;;;;;;-145.23;100.00;58621.06;5003721;28;20236;-54
2022/12/23 09:19:39;;;;;;;24.80;13.43;;;;;;;-145.23;100.00;58621.06;5003810;28;20237;-54
2022/12/23 09:22:06;;;;;;;24.37;13.73;;;;;;;-145.23;100.00;58621.06;5004550;28;20837;-54
2022/12/23 09:24:32;;;;;;;29.70;14.50;;;;;;;-145.23;100.00;58621.06;5003096;28;20233;-55
2022/12/23 09:26:59;;;;;;;25.83;13.83;;;;;;;-145.23;100.00;58621.06;5002790;28;20320;-54
2022/12/23 09:29:25;;;;;;;18.50;11.53;;;;;;;-145.23;100.00;58621.06;5005088;28;20233;-55
2022/12/23 09:31:53;;;;;;;23.40;12.67;;;;;;;-145.23;100.00;58621.06;5013882;28;20240;-55
2022/12/23 09:34:20;;;;;;;25.33;13.60;;;;;;;-145.23;100.00;58621.06;5008364;28;20327;-56
2022/12/23 09:36:46;;;;;;;23.30;12.10;;;;;;;-145.23;100.00;58621.06;5006216;28;20261;-55
2022/12/23 09:39:13;;;;;;;23.47;13.30;;;;;;;-145.23;100.00;58621.06;5005931;28;20319;-55
2022/12/23 09:42:03;;;;;;;26.67;13.13;;;;;;;-145.23;100.00;58621.06;5006306;28;20331;-54
2022/12/23 09:44:48;;;;;;;23.60;12.17;;;;;;;-145.23;100.00;58621.06;4996300;28;20237;-55
2022/12/23 09:47:19;;;;;;;23.67;13.13;;;;;;;-145.23;100.00;58621.06;5013659;28;20234;-54
2022/12/23 09:49:48;;;;;;;20.60;11.77;;;;;;;-145.23;100.00;58621.06;5008738;28;20233;-55
2022/12/23 09:52:20;;;;;;;21.17;11.37;;;;;;;-145.23;100.00;58621.06;5005335;28;20742;-54
2022/12/23 09:54:51;;;;;;;19.27;10.70;;;;;;;-145.23;100.00;58621.06;5002095;28;20235;-55
2022/12/23 09:57:22;;;;;;;17.13;10.17;;;;;;;-145.23;100.00;58621.06;5001611;28;20249;-54
2022/12/23 10:00:02;;;;;;;21.67;11.17;;;;;;;-145.23;100.00;58621.06;5005515;28;20750;-55
2022/12/23 10:02:40;;;;;;;21.23;10.33;;;;;;;-145.23;100.00;58621.06;5000977;28;20248;-56
2022/12/23 10:05:20;;;;;;;15.97;9.43;;;;;;;-145.23;100.00;58621.06;5005474;28;20909;-55
2022/12/23 10:07:50;;;;;;;14.73;8.60;;;;;;;-145.23;100.00;58621.06;5005646;28;20290;-54
2022/12/23 10:10:20;;;;;;;17.23;9.83;;;;;;;-145.23;100.00;58621.06;5016312;28;20224;-55
2022/12/23 10:12:49;;;;;;;14.23;8.63;;;;;;;-145.23;100.00;58621.06;5020960;28;20248;-54
2022/12/23 10:15:22;;;;;;;13.30;8.67;;;;;;;-145.23;100.00;58621.06;5030948;28;20224;-55
2022/12/23 10:17:53;;;;;;;13.03;8.53;;;;;;;-145.23;100.00;58621.06;5022270;28;20279;-55
2022/12/23 10:20:30;;;;;;;20.03;10.40;;;;;;;-145.23;100.00;58621.06;5006903;28;20691;-53
2022/12/23 10:22:57;;;;;;;16.17;9.93;;;;;;;-145.23;100.00;58621.06;5008148;28;20229;-57
2022/12/23 10:25:29;;;;;;;20.47;10.67;;;;;;;-145.23;100.00;58621.06;5008603;28;20237;-54
2022/12/23 10:27:56;;;;;;;21.00;9.97;;;;;;;-145.23;100.00;58621.06;5006077;28;20225;-55
2022/12/23 10:30:23;;;;;;;16.07;10.20;;;;;;;-145.23;100.00;58621.06;5006889;28;20229;-54
2022/12/23 10:32:59;;;;;;;16.57;9.90;;;;;;;-145.23;100.00;58621.06;5006128;28;20229;-55
2022/12/23 10:35:45;;;;;;;16.03;9.27;;;;;;;-145.23;100.00;58621.06;5004744;28;20244;-54
2022/12/23 10:38:23;;;;;;;15.00;9.27;;;;;;;-145.23;100.00;58621.06;5016133;28;20233;-56
2022/12/23 10:40:54;;;;;;;13.63;8.90;;;;;;;-145.23;100.00;58621.06;5024801;28;20736;-54
2022/12/23 10:43:27;;;;;;;14.07;9.17;;;;;;;-145.23;100.00;58621.06;5025668;28;20766;-54
2022/12/23 10:45:58;;;;;;;13.90;8.27;;;;;;;-145.23;100.00;58621.06;5024318;28;20319;-55
2022/12/23 10:48:38;;;;;;;12.50;8.27;;;;;;;-145.23;100.00;58621.06;5023005;28;20230;-55
2022/12/23 10:51:06;;;;;;;9.13;6.37;;;;;;;-145.23;100.00;58621.06;5034655;28;20236;-55
2022/12/23 10:53:35;;;;;;;9.77;6.10;;;;;;;-145.23;100.00;58621.06;5035299;28;20235;-53
2022/12/23 10:56:03;;;;;;;10.57;6.57;;;;;;;-145.23;100.00;58621.06;5023591;28;20836;-54
2022/12/23 10:58:30;;;;;;;10.70;7.53;;;;;;;-145.23;100.00;58621.06;5024815;28;20232;-55
2022/12/23 11:00:59;;;;;;;11.80;6.60;;;;;;;-145.23;100.00;58621.06;5028400;28;20742;-55
2022/12/23 11:03:30;;;;;;;10.53;7.07;;;;;;;-145.23;100.00;58621.06;5024977;28;20244;-54
2022/12/23 11:05:58;;;;;;;10.27;6.90;;;;;;;-145.23;100.00;58621.06;5018697;28;20787;-55
2022/12/23 11:08:26;;;;;;;11.90;7.47;;;;;;;-145.23;100.00;58621.06;5024427;28;20232;-55
2022/12/23 11:10:53;;;;;;;8.17;6.77;;;;;;;-145.23;100.00;58621.06;5027390;28;20239;-56
2022/12/23 11:13:25;;;;;;;10.47;7.03;;;;;;;-145.23;100.00;58621.06;5025949;28;20736;-54
2022/12/23 11:15:52;;;;;;;10.97;7.47;;;;;;;-145.23;100.00;58621.06;5025631;28;20240;-55
2022/12/23 11:18:19;;;;;;;13.30;8.60;;;;;;;-145.23;100.00;58621.06;5025607;28;20232;-54
2022/12/23 11:21:04;;;;;;;10.40;7.30;;;;;;;-145.23;100.00;58621.06;5025586;28;20967;-54
2022/12/23 11:23:32;;;;;;;9.87;7.90;;;;;;;-145.23;100.00;58621.06;5026138;28;20252;-54